Time;durP1;ratioP1;P1;durP2;ratioP2;P2;SDS_P1;SDS_P2;PMS_P1;PMS_P2;Temp;Humidity;BMP_temperature;BMP_pressure;BME280_temperature;BME280_humidity;BME280_pressure;Samples;Min_cycle;Max_cycle;Signal;HPM_P1;HPM_P2
2022/06/28 00:02:26;;;;;;;23.75;5.95;;;;;;;;;;4974013;28;20039;-67
2022/06/28 00:04:52;;;;;;;39.88;6.63;;;;;;;;;;4975461;28;20510;-67
2022/06/28 00:07:26;;;;;;;10.95;5.45;;;;;;;;;;4975271;28;20046;-64
2022/06/28 00:09:52;;;;;;;28.98;6.90;;;;;;;;;;4975034;28;20074;-66
2022/06/28 00:12:19;;;;;;;32.72;6.22;;;;;;;;;;4974940;28;20097;-65
2022/06/28 00:17:31;;;;;;;97.30;10.63;;;;;;;;;;4973079;28;20047;-66
2022/06/28 00:19:57;;;;;;;27.38;6.10;;;;;;;;;;4974525;28;20468;-66
2022/06/28 00:22:24;;;;;;;25.17;5.70;;;;;;;;;;4974671;28;20381;-65
2022/06/28 00:24:50;;;;;;;35.42;6.72;;;;;;;;;;4974307;28;20534;-66
2022/06/28 00:27:18;;;;;;;33.47;6.43;;;;;;;;;;4974524;28;20034;-66
2022/06/28 00:29:44;;;;;;;34.45;6.32;;;;;;;;;;4974288;28;20042;-68
2022/06/28 00:32:11;;;;;;;68.05;8.05;;;;;;;;;;4972964;28;20491;-69
2022/06/28 00:34:38;;;;;;;17.63;5.43;;;;;;;;;;4973248;28;20070;-69
2022/06/28 00:37:04;;;;;;;46.05;6.40;;;;;;;;;;4989028;28;20051;-71
2022/06/28 00:39:31;;;;;;;41.28;6.47;;;;;;;;;;4973677;28;20062;-68
2022/06/28 00:41:57;;;;;;;21.77;5.50;;;;;;;;;;4972341;28;20047;-68
2022/06/28 00:44:24;;;;;;;30.67;5.93;;;;;;;;;;4973465;28;20047;-67
2022/06/28 00:46:51;;;;;;;46.03;7.00;;;;;;;;;;4972965;28;20134;-69
2022/06/28 00:49:18;;;;;;;30.90;5.88;;;;;;;;;;4988017;28;20488;-66
2022/06/28 00:51:45;;;;;;;18.98;6.18;;;;;;;;;;4972413;28;20054;-66
2022/06/28 00:54:12;;;;;;;60.70;8.02;;;;;;;;;;4974053;28;20463;-69
2022/06/28 00:56:39;;;;;;;40.83;6.90;;;;;;;;;;4988761;28;20062;-69
2022/06/28 00:59:05;;;;;;;36.17;6.30;;;;;;;;;;4972556;28;20099;-66
2022/06/28 01:01:32;;;;;;;19.60;5.28;;;;;;;;;;4973960;28;20046;-65
2022/06/28 01:04:00;;;;;;;31.08;6.18;;;;;;;;;;4971776;28;20070;-62
2022/06/28 01:06:26;;;;;;;37.92;6.95;;;;;;;;;;4971685;28;20050;-60
2022/06/28 01:08:54;;;;;;;22.02;5.93;;;;;;;;;;4971090;28;20039;-64
2022/06/28 01:11:23;;;;;;;26.15;5.93;;;;;;;;;;4972025;28;20041;-64
2022/06/28 01:13:58;;;;;;;14.93;5.63;;;;;;;;;;4972698;28;20504;-64
2022/06/28 01:16:28;;;;;;;45.20;7.53;;;;;;;;;;4972132;28;20447;-65
2022/06/28 01:19:05;;;;;;;28.38;6.97;;;;;;;;;;4971515;28;20043;-64
2022/06/28 01:21:36;;;;;;;30.45;6.35;;;;;;;;;;4971637;28;20793;-64
2022/06/28 01:24:03;;;;;;;18.40;5.90;;;;;;;;;;4971594;28;20054;-64
2022/06/28 01:26:43;;;;;;;43.17;7.38;;;;;;;;;;4969115;28;20055;-66
2022/06/28 01:29:10;;;;;;;46.50;9.10;;;;;;;;;;4972732;28;20050;-66
2022/06/28 01:31:45;;;;;;;23.88;9.02;;;;;;;;;;4972972;28;20078;-64
2022/06/28 01:34:14;;;;;;;36.95;10.93;;;;;;;;;;4952765;28;20151;-64
2022/06/28 01:36:41;;;;;;;31.48;11.70;;;;;;;;;;4982481;28;20058;-64
2022/06/28 01:39:09;;;;;;;34.25;8.93;;;;;;;;;;4988090;28;20082;-65
2022/06/28 01:41:36;;;;;;;39.53;7.32;;;;;;;;;;4972259;28;20055;-64
2022/06/28 01:44:16;;;;;;;37.60;7.57;;;;;;;;;;4973256;28;20121;-65
2022/06/28 01:46:56;;;;;;;69.80;9.68;;;;;;;;;;4971638;28;20047;-64
2022/06/28 01:49:31;;;;;;;21.85;5.43;;;;;;;;;;4988257;28;20154;-65
2022/06/28 01:51:58;;;;;;;23.33;6.20;;;;;;;;;;4971145;28;20053;-65
2022/06/28 01:54:25;;;;;;;33.97;6.72;;;;;;;;;;4970694;28;20114;-64
2022/06/28 01:56:52;;;;;;;32.30;6.68;;;;;;;;;;4972030;28;20054;-64
2022/06/28 01:59:25;;;;;;;;;;;;;;;;;;4972091;28;20086;-64
2022/06/28 02:02:00;;;;;;;34.50;6.53;;;;;;;;;;4972481;28;19929;-67
2022/06/28 02:04:38;;;;;;;67.03;8.43;;;;;;;;;;4971630;28;20055;-64
2022/06/28 02:07:05;;;;;;;42.42;6.63;;;;;;;;;;4971162;28;20071;-67
2022/06/28 02:09:38;;;;;;;16.33;5.65;;;;;;;;;;4971558;28;20039;-67
2022/06/28 02:12:04;;;;;;;34.97;6.72;;;;;;;;;;4971605;28;20093;-66
2022/06/28 02:14:31;;;;;;;26.73;6.53;;;;;;;;;;4971094;28;20488;-66
2022/06/28 02:17:01;;;;;;;44.72;6.97;;;;;;;;;;4967677;28;20508;-64
2022/06/28 02:19:28;;;;;;;37.47;6.30;;;;;;;;;;4967497;28;20093;-65
2022/06/28 02:21:55;;;;;;;29.40;6.45;;;;;;;;;;4970765;28;20411;-65
2022/06/28 02:24:25;;;;;;;27.88;7.72;;;;;;;;;;4970895;28;20059;-66
2022/06/28 02:26:52;;;;;;;28.05;6.43;;;;;;;;;;4972550;28;20711;-66
2022/06/28 02:29:18;;;;;;;45.63;7.60;;;;;;;;;;4972240;28;20050;-65
2022/06/28 02:31:45;;;;;;;20.55;5.63;;;;;;;;;;4972577;28;20090;-64
2022/06/28 02:40:21;;;;;;;48.80;7.40;;;;;;;;;;4970900;28;20101;-65
2022/06/28 02:42:29;;;;;;;43.05;7.57;;;;;;;;;;4962352;28;20079;-64
2022/06/28 02:44:55;;;;;;;35.75;6.68;;;;;;;;;;4970471;28;20134;-66
2022/06/28 02:47:22;;;;;;;62.38;8.18;;;;;;;;;;4986418;28;20055;-65
2022/06/28 02:49:48;;;;;;;27.20;7.60;;;;;;;;;;4972235;28;20042;-62
2022/06/28 02:52:15;;;;;;;44.55;7.68;;;;;;;;;;4970823;28;20109;-63
2022/06/28 02:54:42;;;;;;;16.65;5.80;;;;;;;;;;4970965;28;20059;-65
2022/06/28 02:57:08;;;;;;;68.38;8.77;;;;;;;;;;4971602;28;20047;-64
2022/06/28 02:59:35;;;;;;;40.50;7.55;;;;;;;;;;4971194;28;20041;-64
2022/06/28 03:02:03;;;;;;;24.95;6.68;;;;;;;;;;4986970;28;20043;-64
2022/06/28 03:04:29;;;;;;;28.63;6.60;;;;;;;;;;4970087;28;20039;-63
2022/06/28 03:06:56;;;;;;;35.25;6.80;;;;;;;;;;4971674;28;20080;-63
2022/06/28 03:09:23;;;;;;;17.17;5.93;;;;;;;;;;4970823;28;20043;-64
2022/06/28 03:11:49;;;;;;;40.95;7.50;;;;;;;;;;4971110;28;20051;-64
2022/06/28 03:14:16;;;;;;;158.30;16.23;;;;;;;;;;4970629;28;20126;-64
2022/06/28 03:16:42;;;;;;;59.35;7.78;;;;;;;;;;4972088;28;20101;-65
2022/06/28 03:19:09;;;;;;;38.00;6.88;;;;;;;;;;4969787;28;20043;-64
2022/06/28 03:21:35;;;;;;;42.10;7.40;;;;;;;;;;4970550;28;20135;-65
2022/06/28 03:24:02;;;;;;;21.17;5.85;;;;;;;;;;4986824;28;20089;-64
2022/06/28 03:26:29;;;;;;;24.73;6.60;;;;;;;;;;4970456;28;20046;-64
2022/06/28 03:28:55;;;;;;;51.25;8.02;;;;;;;;;;4970829;28;20043;-65
2022/06/28 03:31:22;;;;;;;32.10;5.90;;;;;;;;;;4971382;28;20090;-64
2022/06/28 03:33:50;;;;;;;24.63;6.20;;;;;;;;;;4969587;28;20138;-67
2022/06/28 03:36:16;;;;;;;103.50;11.50;;;;;;;;;;4969821;28;20046;-64
2022/06/28 03:38:44;;;;;;;17.58;5.68;;;;;;;;;;4971022;28;20042;-64
2022/06/28 03:41:31;;;;;;;33.65;7.13;;;;;;;;;;4971070;28;20403;-65
2022/06/28 03:44:05;;;;;;;35.30;6.93;;;;;;;;;;4970286;28;20046;-64
2022/06/28 03:46:32;;;;;;;36.08;6.57;;;;;;;;;;4970492;28;20138;-64
2022/06/28 03:49:19;;;;;;;21.17;5.38;;;;;;;;;;4966654;28;20495;-64
2022/06/28 03:52:08;;;;;;;45.05;7.57;;;;;;;;;;4965372;28;20500;-63
2022/06/28 03:54:48;;;;;;;19.42;5.63;;;;;;;;;;4970320;28;20134;-64
2022/06/28 03:57:29;;;;;;;19.40;5.40;;;;;;;;;;4967395;28;20674;-63
2022/06/28 03:59:56;;;;;;;50.80;6.78;;;;;;;;;;4970438;28;20499;-63
2022/06/28 04:02:24;;;;;;;27.67;6.28;;;;;;;;;;4987129;28;20047;-65
2022/06/28 04:04:51;;;;;;;29.08;5.97;;;;;;;;;;4970919;28;20085;-66
2022/06/28 04:07:17;;;;;;;36.85;6.35;;;;;;;;;;4986455;28;20526;-67
2022/06/28 04:09:45;;;;;;;34.67;6.32;;;;;;;;;;4970074;28;20503;-67
2022/06/28 04:12:12;;;;;;;44.72;6.75;;;;;;;;;;4969145;28;20043;-67
2022/06/28 04:14:39;;;;;;;27.83;5.80;;;;;;;;;;4969930;28;20053;-67
2022/06/28 04:17:06;;;;;;;55.38;7.20;;;;;;;;;;4970359;28;20047;-64
2022/06/28 04:20:02;;;;;;;63.67;7.78;;;;;;;;;;4973838;28;20104;-65
2022/06/28 04:22:33;;;;;;;44.25;6.25;;;;;;;;;;4972966;28;20144;-65
2022/06/28 04:24:59;;;;;;;25.00;5.57;;;;;;;;;;4971889;28;20078;-65
2022/06/28 04:27:36;;;;;;;29.40;6.63;;;;;;;;;;4973248;28;20042;-65
2022/06/28 04:30:03;;;;;;;78.78;9.02;;;;;;;;;;4973997;28;20035;-66
2022/06/28 04:32:52;;;;;;;25.38;5.35;;;;;;;;;;4972932;28;20122;-65
2022/06/28 04:35:21;;;;;;;60.85;7.55;;;;;;;;;;4988908;28;20047;-65
2022/06/28 04:37:48;;;;;;;298.95;25.77;;;;;;;;;;4973464;28;20050;-65
2022/06/28 04:40:26;;;;;;;39.72;6.13;;;;;;;;;;4972319;28;20571;-65
2022/06/28 04:43:07;;;;;;;31.38;5.25;;;;;;;;;;4973320;28;20047;-64
2022/06/28 04:45:34;;;;;;;37.03;6.18;;;;;;;;;;4973578;28;20043;-65
2022/06/28 04:48:07;;;;;;;24.70;5.35;;;;;;;;;;4968579;28;20561;-64
2022/06/28 04:50:34;;;;;;;154.27;14.15;;;;;;;;;;4986026;28;20039;-63
2022/06/28 04:53:01;;;;;;;81.25;8.45;;;;;;;;;;4973514;28;20051;-64
2022/06/28 04:55:30;;;;;;;48.15;6.25;;;;;;;;;;4971550;28;20050;-63
2022/06/28 04:57:59;;;;;;;45.22;6.22;;;;;;;;;;4988356;28;20043;-65
2022/06/28 05:00:28;;;;;;;44.72;7.15;;;;;;;;;;4974162;28;20066;-62
2022/06/28 05:03:18;;;;;;;25.33;4.88;;;;;;;;;;4972626;28;20039;-62
2022/06/28 05:06:00;;;;;;;31.60;5.57;;;;;;;;;;4974040;28;20427;-62
2022/06/28 05:08:52;;;;;;;43.47;5.83;;;;;;;;;;4972336;28;20510;-62
2022/06/28 05:11:33;;;;;;;31.70;5.35;;;;;;;;;;4972476;28;20388;-62
2022/06/28 05:14:34;;;;;;;41.28;6.60;;;;;;;;;;4973192;28;20043;-62
2022/06/28 05:17:01;;;;;;;40.42;5.80;;;;;;;;;;4973171;28;20046;-64
2022/06/28 05:19:30;;;;;;;42.03;5.85;;;;;;;;;;4987751;28;20046;-65
2022/06/28 05:21:56;;;;;;;53.17;6.95;;;;;;;;;;4987914;28;20054;-65
2022/06/28 05:24:23;;;;;;;30.85;5.47;;;;;;;;;;4987875;28;20542;-65
2022/06/28 05:26:57;;;;;;;41.65;5.97;;;;;;;;;;4986666;28;20046;-66
2022/06/28 05:29:27;;;;;;;25.15;4.78;;;;;;;;;;4972252;28;20046;-63
2022/06/28 05:31:54;;;;;;;40.80;4.93;;;;;;;;;;4973710;28;20122;-65
2022/06/28 05:34:21;;;;;;;29.75;5.63;;;;;;;;;;4971659;28;20037;-65
2022/06/28 05:36:48;;;;;;;43.40;6.60;;;;;;;;;;4971379;28;20043;-63
2022/06/28 05:39:15;;;;;;;49.95;6.25;;;;;;;;;;4987590;28;20042;-63
2022/06/28 05:41:41;;;;;;;23.55;4.63;;;;;;;;;;4971945;28;20041;-65
2022/06/28 05:44:10;;;;;;;57.88;6.68;;;;;;;;;;4984691;28;20069;-66
2022/06/28 05:46:39;;;;;;;38.30;6.63;;;;;;;;;;4972147;28;20101;-64
2022/06/28 05:49:06;;;;;;;43.22;6.97;;;;;;;;;;4971880;28;20467;-62
2022/06/28 05:51:33;;;;;;;90.10;10.30;;;;;;;;;;4971749;28;20134;-63
2022/06/28 05:54:01;;;;;;;43.67;7.53;;;;;;;;;;4988057;28;20045;-64
2022/06/28 05:56:28;;;;;;;53.00;5.95;;;;;;;;;;4971998;28;20097;-64
2022/06/28 05:58:55;;;;;;;38.53;5.28;;;;;;;;;;4988840;28;20054;-64
2022/06/28 06:01:22;;;;;;;49.45;6.13;;;;;;;;;;4971556;28;20134;-64
2022/06/28 06:03:50;;;;;;;23.55;4.55;;;;;;;;;;4971622;28;20043;-64
2022/06/28 06:06:17;;;;;;;35.55;5.10;;;;;;;;;;4972564;28;20039;-65
2022/06/28 06:08:47;;;;;;;48.45;5.72;;;;;;;;;;4971767;28;20047;-66
2022/06/28 06:11:14;;;;;;;44.25;5.85;;;;;;;;;;4969376;28;20043;-65
2022/06/28 06:13:40;;;;;;;34.28;5.45;;;;;;;;;;4973384;28;20054;-64
2022/06/28 06:16:07;;;;;;;42.05;5.78;;;;;;;;;;4971480;28;20039;-65
2022/06/28 06:18:34;;;;;;;19.30;4.25;;;;;;;;;;4971586;28;20051;-64
2022/06/28 06:21:01;;;;;;;30.48;5.25;;;;;;;;;;4972664;28;20043;-64
2022/06/28 06:23:27;;;;;;;55.13;6.60;;;;;;;;;;4972405;28;20058;-65
2022/06/28 06:25:59;;;;;;;;;;;;;;;;;;4973800;28;20042;-64
2022/06/28 06:28:28;;;;;;;32.13;4.90;;;;;;;;;;4971136;28;20406;-64
2022/06/28 06:30:55;;;;;;;517.13;43.70;;;;;;;;;;4970875;28;20046;-65
2022/06/28 06:33:57;;;;;;;38.70;5.63;;;;;;;;;;4950501;29;20051;-64
2022/06/28 06:36:35;;;;;;;77.00;7.63;;;;;;;;;;4934737;29;20047;-65
2022/06/28 06:39:03;;;;;;;38.03;7.20;;;;;;;;;;4931558;29;20047;-64
2022/06/28 06:41:31;;;;;;;32.28;5.15;;;;;;;;;;4934281;29;20058;-65
2022/06/28 06:43:58;;;;;;;21.98;4.45;;;;;;;;;;4932469;29;20039;-64
2022/06/28 06:46:28;;;;;;;49.22;6.07;;;;;;;;;;4934111;29;20106;-65
2022/06/28 06:48:55;;;;;;;73.93;7.20;;;;;;;;;;4949821;29;20126;-64
2022/06/28 06:51:21;;;;;;;58.55;7.10;;;;;;;;;;4934473;29;20913;-65
2022/06/28 06:53:48;;;;;;;28.30;5.70;;;;;;;;;;4951077;29;20043;-64
2022/06/28 06:56:15;;;;;;;55.55;7.13;;;;;;;;;;4934554;29;20066;-64
2022/06/28 06:58:42;;;;;;;41.75;6.00;;;;;;;;;;4932086;29;20043;-65
2022/06/28 07:01:09;;;;;;;19.30;5.10;;;;;;;;;;4934363;29;20047;-66
2022/06/28 07:03:56;;;;;;;104.03;10.63;;;;;;;;;;4933494;29;20480;-65
2022/06/28 07:06:22;;;;;;;32.53;5.30;;;;;;;;;;4948452;29;20135;-65
2022/06/28 07:08:49;;;;;;;71.82;7.07;;;;;;;;;;4967300;28;20086;-65
2022/06/28 07:11:17;;;;;;;60.72;7.13;;;;;;;;;;4968364;28;20138;-66
2022/06/28 07:13:44;;;;;;;18.23;4.85;;;;;;;;;;4968566;28;20042;-65
2022/06/28 07:16:11;;;;;;;66.30;8.70;;;;;;;;;;4970253;28;20046;-65
2022/06/28 07:18:38;;;;;;;64.20;8.18;;;;;;;;;;4985367;28;20125;-66
2022/06/28 07:21:05;;;;;;;47.15;5.80;;;;;;;;;;4970958;28;20070;-65
2022/06/28 07:23:32;;;;;;;55.20;6.85;;;;;;;;;;4969709;28;20051;-65
2022/06/28 07:25:59;;;;;;;31.60;5.07;;;;;;;;;;4970758;28;20098;-65
2022/06/28 07:28:25;;;;;;;22.25;4.30;;;;;;;;;;4954613;28;20500;-65
2022/06/28 07:30:52;;;;;;;59.08;6.50;;;;;;;;;;4970022;28;20047;-65
2022/06/28 07:33:21;;;;;;;29.15;5.00;;;;;;;;;;4970823;28;20237;-66
2022/06/28 07:35:47;;;;;;;26.48;4.63;;;;;;;;;;4970114;28;20039;-65
2022/06/28 07:38:14;;;;;;;94.10;9.32;;;;;;;;;;4970426;28;20059;-65
2022/06/28 07:41:00;;;;;;;63.10;7.30;;;;;;;;;;4972487;28;20058;-65
2022/06/28 07:43:58;;;;;;;73.50;37.10;;;;;;;;;;4969020;28;20051;-65
2022/06/28 07:46:28;;;;;;;43.75;6.43;;;;;;;;;;4969448;28;20070;-65
2022/06/28 07:48:55;;;;;;;55.50;6.32;;;;;;;;;;4968210;28;20582;-65
2022/06/28 07:54:08;;;;;;;40.65;6.10;;;;;;;;;;4973100;28;20101;-65
2022/06/28 07:56:47;;;;;;;25.55;4.80;;;;;;;;;;4958795;28;20045;-65
2022/06/28 07:59:14;;;;;;;72.97;8.00;;;;;;;;;;4956141;28;20117;-64
2022/06/28 08:01:40;;;;;;;50.38;6.32;;;;;;;;;;4971336;28;20102;-65
2022/06/28 08:04:20;;;;;;;26.40;5.05;;;;;;;;;;4971586;28;20054;-65
2022/06/28 08:06:48;;;;;;;39.72;5.68;;;;;;;;;;4972040;28;20385;-65
2022/06/28 08:09:15;;;;;;;135.52;13.57;;;;;;;;;;4972136;28;20042;-65
2022/06/28 08:11:42;;;;;;;35.97;5.43;;;;;;;;;;4971976;28;20098;-65
2022/06/28 08:14:12;;;;;;;61.42;8.07;;;;;;;;;;4972273;28;20117;-64
2022/06/28 08:16:40;;;;;;;59.58;6.78;;;;;;;;;;4953033;29;20051;-63
2022/06/28 08:19:10;;;;;;;40.20;5.80;;;;;;;;;;4971240;28;20093;-65
2022/06/28 08:21:38;;;;;;;39.42;5.80;;;;;;;;;;4972991;28;20050;-65
2022/06/28 08:24:05;;;;;;;44.28;6.00;;;;;;;;;;4988786;28;20050;-65
2022/06/28 08:26:32;;;;;;;64.05;7.10;;;;;;;;;;4988418;28;20142;-65
2022/06/28 08:28:58;;;;;;;57.95;6.82;;;;;;;;;;4989736;28;20039;-64
2022/06/28 08:31:25;;;;;;;29.40;5.22;;;;;;;;;;4972501;28;20074;-64
2022/06/28 08:33:51;;;;;;;70.55;7.97;;;;;;;;;;4972795;28;20050;-64
2022/06/28 08:36:18;;;;;;;32.25;5.20;;;;;;;;;;4988678;28;20043;-64
2022/06/28 08:38:44;;;;;;;62.90;7.88;;;;;;;;;;4974005;28;20057;-64
2022/06/28 08:41:11;;;;;;;51.92;6.47;;;;;;;;;;4975000;28;20081;-65
2022/06/28 08:43:38;;;;;;;21.85;4.47;;;;;;;;;;4974784;28;20047;-65
2022/06/28 08:46:04;;;;;;;37.83;5.53;;;;;;;;;;4973893;28;20053;-65
2022/06/28 08:48:34;;;;;;;32.92;5.53;;;;;;;;;;4973552;28;20043;-65
2022/06/28 08:51:01;;;;;;;31.55;5.93;;;;;;;;;;4974628;28;20595;-65
2022/06/28 08:53:28;;;;;;;125.22;13.57;;;;;;;;;;4973821;28;20478;-65
2022/06/28 08:55:55;;;;;;;36.25;5.82;;;;;;;;;;4974521;28;20038;-65
2022/06/28 08:58:22;;;;;;;32.03;6.00;;;;;;;;;;4973956;28;20060;-65
2022/06/28 09:00:48;;;;;;;36.65;5.68;;;;;;;;;;4974077;28;20073;-65
2022/06/28 09:03:16;;;;;;;52.55;7.63;;;;;;;;;;4972811;28;20070;-65
2022/06/28 09:05:42;;;;;;;28.20;5.80;;;;;;;;;;4973759;28;20039;-64
2022/06/28 09:08:09;;;;;;;46.05;6.45;;;;;;;;;;4974187;28;20118;-66
2022/06/28 09:10:36;;;;;;;29.95;5.18;;;;;;;;;;4974039;28;20035;-65
2022/06/28 09:13:18;;;;;;;123.95;12.60;;;;;;;;;;4973452;28;20057;-65
2022/06/28 09:15:48;;;;;;;61.80;8.55;;;;;;;;;;4973126;28;20475;-64
2022/06/28 09:18:15;;;;;;;52.55;7.30;;;;;;;;;;4971795;28;20046;-65
2022/06/28 09:20:43;;;;;;;34.70;6.57;;;;;;;;;;4972384;28;20047;-65
2022/06/28 09:23:25;;;;;;;34.85;6.15;;;;;;;;;;4973949;28;20170;-65
2022/06/28 09:25:51;;;;;;;;;;;;;;;;;;4973130;28;20127;-65
2022/06/28 09:28:26;;;;;;;28.38;5.68;;;;;;;;;;4973698;28;20002;-66
2022/06/28 09:31:13;;;;;;;60.75;7.75;;;;;;;;;;4973208;28;20050;-65
2022/06/28 09:33:41;;;;;;;32.97;6.45;;;;;;;;;;4971546;28;20058;-65
2022/06/28 09:36:15;;;;;;;43.20;6.88;;;;;;;;;;4972811;28;20034;-64
2022/06/28 09:38:42;;;;;;;46.35;6.88;;;;;;;;;;4972822;28;20051;-64
2022/06/28 09:41:18;;;;;;;411.23;32.47;;;;;;;;;;4973560;28;20122;-64
2022/06/28 09:43:52;;;;;;;21.98;5.03;;;;;;;;;;4973248;28;20109;-65
2022/06/28 09:46:19;;;;;;;47.50;7.13;;;;;;;;;;4973271;28;20038;-65
2022/06/28 09:48:45;;;;;;;31.58;6.30;;;;;;;;;;4973129;28;20129;-64
2022/06/28 09:51:12;;;;;;;42.70;6.97;;;;;;;;;;4973108;28;20061;-65
2022/06/28 09:53:43;;;;;;;40.70;7.32;;;;;;;;;;4973272;28;20129;-64
2022/06/28 09:56:40;;;;;;;43.47;7.18;;;;;;;;;;4971584;28;20101;-65
2022/06/28 09:59:07;;;;;;;43.58;6.53;;;;;;;;;;4973872;28;20061;-64
2022/06/28 10:01:34;;;;;;;117.28;11.88;;;;;;;;;;4971642;28;20130;-64
2022/06/28 10:04:01;;;;;;;30.23;6.03;;;;;;;;;;4972406;28;20042;-64
2022/06/28 10:06:29;;;;;;;65.97;8.75;;;;;;;;;;4972622;28;20459;-65
2022/06/28 10:08:57;;;;;;;51.95;6.65;;;;;;;;;;4973006;28;20044;-64
2022/06/28 10:11:24;;;;;;;52.38;5.88;;;;;;;;;;4973239;28;20097;-65
2022/06/28 10:16:57;;;;;;;25.17;5.93;;;;;;;;;;4973121;28;20130;-64
2022/06/28 10:19:25;;;;;;;17.52;6.07;;;;;;;;;;4972556;28;20050;-64
2022/06/28 10:21:52;;;;;;;41.40;5.40;;;;;;;;;;4972732;28;20058;-64
2022/06/28 10:24:19;;;;;;;74.82;7.03;;;;;;;;;;4972377;28;20078;-64
2022/06/28 10:27:05;;;;;;;27.50;4.97;;;;;;;;;;4972366;28;20070;-64
2022/06/28 10:29:32;;;;;;;49.22;8.20;;;;;;;;;;4972429;28;20071;-64
2022/06/28 10:31:59;;;;;;;26.27;6.55;;;;;;;;;;4973387;28;20493;-64
2022/06/28 10:34:46;;;;;;;101.78;10.02;;;;;;;;;;4972009;28;20049;-64
2022/06/28 10:37:13;;;;;;;34.78;4.88;;;;;;;;;;4971864;28;20050;-64
2022/06/28 10:39:39;;;;;;;49.38;5.40;;;;;;;;;;4971388;28;20070;-65
2022/06/28 10:42:07;;;;;;;38.75;5.03;;;;;;;;;;4971260;28;20067;-64
2022/06/28 10:44:34;;;;;;;19.90;4.07;;;;;;;;;;4972838;28;20058;-65
2022/06/28 10:47:00;;;;;;;41.65;5.07;;;;;;;;;;4973045;28;20226;-65
2022/06/28 10:49:51;;;;;;;171.68;14.18;;;;;;;;;;4972002;28;20515;-64
2022/06/28 10:52:35;;;;;;;31.55;5.00;;;;;;;;;;4972177;28;20547;-64
2022/06/28 10:55:04;;;;;;;29.90;4.55;;;;;;;;;;4972254;28;20051;-64
2022/06/28 10:57:38;;;;;;;34.40;5.65;;;;;;;;;;4971926;28;20466;-64
2022/06/28 11:00:19;;;;;;;61.13;6.32;;;;;;;;;;4970967;28;20066;-64
2022/06/28 11:02:46;;;;;;;67.03;7.07;;;;;;;;;;4972067;28;20089;-65
2022/06/28 11:05:13;;;;;;;46.10;5.88;;;;;;;;;;4972232;28;20085;-64
2022/06/28 11:07:40;;;;;;;25.15;4.97;;;;;;;;;;4972986;28;20109;-65
2022/06/28 11:10:09;;;;;;;77.90;7.80;;;;;;;;;;4971776;28;20046;-65
2022/06/28 11:12:38;;;;;;;32.05;4.75;;;;;;;;;;4971324;28;20050;-65
2022/06/28 11:15:08;;;;;;;18.67;3.92;;;;;;;;;;4971444;28;20081;-66
2022/06/28 11:17:37;;;;;;;94.95;9.15;;;;;;;;;;4971628;28;20439;-64
2022/06/28 11:20:03;;;;;;;33.08;4.95;;;;;;;;;;4972493;28;20046;-64
2022/06/28 11:22:32;;;;;;;24.75;4.45;;;;;;;;;;4970850;28;20122;-67
2022/06/28 11:25:00;;;;;;;43.55;5.63;;;;;;;;;;4971243;28;20050;-65
2022/06/28 11:27:26;;;;;;;33.22;4.90;;;;;;;;;;4974999;28;20059;-65
2022/06/28 11:29:59;;;;;;;36.90;5.07;;;;;;;;;;4974666;28;20039;-64
2022/06/28 11:32:31;;;;;;;52.35;6.10;;;;;;;;;;4973779;28;20074;-65
2022/06/28 11:35:00;;;;;;;39.70;5.28;;;;;;;;;;4974850;28;20118;-65
2022/06/28 11:37:27;;;;;;;28.30;4.18;;;;;;;;;;4975591;28;20055;-65
2022/06/28 11:39:55;;;;;;;24.42;4.32;;;;;;;;;;4975602;28;20488;-65
2022/06/28 11:42:21;;;;;;;38.10;5.85;;;;;;;;;;4972710;28;20038;-65
2022/06/28 11:44:49;;;;;;;63.33;6.60;;;;;;;;;;4975076;28;20066;-65
2022/06/28 11:47:18;;;;;;;43.60;5.75;;;;;;;;;;4975972;28;20053;-65
2022/06/28 11:49:49;;;;;;;28.48;4.72;;;;;;;;;;4975809;28;20117;-65
2022/06/28 11:52:16;;;;;;;64.22;6.38;;;;;;;;;;4975195;28;20050;-65
2022/06/28 11:54:44;;;;;;;44.78;5.20;;;;;;;;;;4974950;28;20074;-66
2022/06/28 11:57:14;;;;;;;21.55;4.32;;;;;;;;;;4975569;28;20066;-64
2022/06/28 11:59:50;;;;;;;60.63;6.00;;;;;;;;;;4975586;28;20043;-63
2022/06/28 12:02:16;;;;;;;;;;;;;;;;;;4973754;28;20089;-64
2022/06/28 12:04:43;;;;;;;44.65;5.53;;;;;;;;;;4989610;28;19925;-63
2022/06/28 12:07:09;;;;;;;37.90;5.07;;;;;;;;;;4974969;28;20165;-63
2022/06/28 12:09:43;;;;;;;40.70;5.38;;;;;;;;;;4974486;28;20050;-64
2022/06/28 12:12:10;;;;;;;39.65;5.20;;;;;;;;;;4974778;28;20119;-64
2022/06/28 12:14:36;;;;;;;57.45;5.95;;;;;;;;;;4975025;28;20114;-62
2022/06/28 12:17:03;;;;;;;58.42;6.35;;;;;;;;;;4975390;28;20047;-62
2022/06/28 12:19:33;;;;;;;31.83;4.78;;;;;;;;;;4974351;28;20554;-63
2022/06/28 12:22:06;;;;;;;41.95;4.90;;;;;;;;;;4974589;28;20070;-64
2022/06/28 12:24:40;;;;;;;44.33;5.25;;;;;;;;;;4974402;28;20051;-63
2022/06/28 12:27:07;;;;;;;30.60;4.45;;;;;;;;;;4974980;28;20082;-62
2022/06/28 12:29:34;;;;;;;56.65;6.10;;;;;;;;;;4974324;28;20076;-64
2022/06/28 12:32:00;;;;;;;31.77;4.80;;;;;;;;;;4975125;28;20050;-65
2022/06/28 12:34:27;;;;;;;21.48;3.90;;;;;;;;;;4974151;28;20138;-65
2022/06/28 12:36:53;;;;;;;44.72;5.50;;;;;;;;;;4974079;28;20039;-67
2022/06/28 12:39:20;;;;;;;63.63;7.93;;;;;;;;;;4972620;28;20125;-65
2022/06/28 12:41:48;;;;;;;44.35;5.68;;;;;;;;;;4974278;28;20043;-66
2022/06/28 12:44:15;;;;;;;55.67;5.70;;;;;;;;;;4974128;28;20078;-66
2022/06/28 12:46:42;;;;;;;39.80;4.72;;;;;;;;;;4975047;28;20078;-66
2022/06/28 12:49:09;;;;;;;52.08;5.90;;;;;;;;;;4973774;28;20535;-67
2022/06/28 12:51:36;;;;;;;75.43;7.22;;;;;;;;;;4973684;28;20051;-67
2022/06/28 12:54:03;;;;;;;31.17;4.47;;;;;;;;;;4974272;28;20455;-66
2022/06/28 12:56:30;;;;;;;48.08;5.82;;;;;;;;;;4974148;28;20072;-66
2022/06/28 12:58:59;;;;;;;44.65;5.07;;;;;;;;;;4974533;28;20125;-66
2022/06/28 13:01:26;;;;;;;35.72;4.78;;;;;;;;;;4973991;28;20439;-66
2022/06/28 13:03:53;;;;;;;42.40;4.97;;;;;;;;;;4973563;28;20138;-63
2022/06/28 13:06:21;;;;;;;91.78;8.30;;;;;;;;;;4973813;28;20487;-63
2022/06/28 13:08:47;;;;;;;22.20;4.03;;;;;;;;;;4974054;28;20070;-63
2022/06/28 13:11:14;;;;;;;54.30;6.28;;;;;;;;;;4974199;28;20085;-64
2022/06/28 13:13:41;;;;;;;76.32;6.90;;;;;;;;;;4973571;28;20522;-63
2022/06/28 13:16:07;;;;;;;48.38;5.88;;;;;;;;;;4973571;28;20069;-64
2022/06/28 13:18:40;;;;;;;42.00;5.10;;;;;;;;;;4973648;28;20113;-64
2022/06/28 13:21:07;;;;;;;55.67;6.88;;;;;;;;;;4973568;28;20135;-64
2022/06/28 13:23:34;;;;;;;35.55;4.90;;;;;;;;;;4973614;28;20640;-62
2022/06/28 13:26:00;;;;;;;70.15;7.13;;;;;;;;;;4974387;28;20045;-63
2022/06/28 13:28:27;;;;;;;47.05;6.03;;;;;;;;;;4973866;28;20141;-64
2022/06/28 13:30:53;;;;;;;46.92;5.65;;;;;;;;;;4973627;28;20121;-63
2022/06/28 13:33:20;;;;;;;45.53;5.35;;;;;;;;;;4973059;28;20039;-65
2022/06/28 13:35:48;;;;;;;81.93;8.38;;;;;;;;;;4973184;28;20122;-64
2022/06/28 13:38:15;;;;;;;29.17;4.78;;;;;;;;;;4973696;28;20039;-63
2022/06/28 13:40:47;;;;;;;44.13;5.65;;;;;;;;;;4973764;28;20153;-64
2022/06/28 13:43:33;;;;;;;109.82;9.95;;;;;;;;;;4973114;28;20039;-64
2022/06/28 13:46:06;;;;;;;121.20;10.95;;;;;;;;;;4973293;28;20097;-64
2022/06/28 13:48:33;;;;;;;48.75;5.60;;;;;;;;;;4973070;28;20035;-64
2022/06/28 13:51:03;;;;;;;43.20;5.28;;;;;;;;;;4973369;28;20074;-64
2022/06/28 13:53:31;;;;;;;41.03;4.85;;;;;;;;;;4973080;28;20042;-64
2022/06/28 13:55:59;;;;;;;32.38;4.65;;;;;;;;;;4973968;28;20122;-65
2022/06/28 13:58:26;;;;;;;21.00;3.58;;;;;;;;;;4972087;28;20054;-63
2022/06/28 14:00:52;;;;;;;18.92;3.85;;;;;;;;;;4973120;28;20085;-64
2022/06/28 14:03:19;;;;;;;44.72;5.22;;;;;;;;;;4972597;28;20539;-64
2022/06/28 14:05:46;;;;;;;55.40;6.13;;;;;;;;;;4972758;28;20035;-64
2022/06/28 14:08:13;;;;;;;87.75;8.20;;;;;;;;;;4974063;28;20042;-64
2022/06/28 14:10:40;;;;;;;72.25;7.53;;;;;;;;;;4972847;28;20046;-64
2022/06/28 14:13:14;;;;;;;51.50;5.57;;;;;;;;;;4972787;28;20124;-65
2022/06/28 14:15:40;;;;;;;84.28;7.40;;;;;;;;;;4972676;28;20117;-64
2022/06/28 14:18:07;;;;;;;67.97;7.28;;;;;;;;;;4972509;28;20043;-64
2022/06/28 14:20:34;;;;;;;60.65;6.47;;;;;;;;;;4972467;28;20082;-64
2022/06/28 14:23:00;;;;;;;75.63;7.70;;;;;;;;;;4972970;28;20424;-64
2022/06/28 14:25:27;;;;;;;41.25;5.40;;;;;;;;;;4972867;28;20145;-64
2022/06/28 14:27:54;;;;;;;74.15;6.85;;;;;;;;;;4972898;28;20046;-64
2022/06/28 14:30:27;;;;;;;60.22;7.97;;;;;;;;;;4972799;28;20495;-64
2022/06/28 14:32:54;;;;;;;96.32;10.18;;;;;;;;;;4972203;28;20081;-64
2022/06/28 14:35:26;;;;;;;242.75;19.42;;;;;;;;;;4970710;28;20070;-64
2022/06/28 14:38:12;;;;;;;105.55;9.90;;;;;;;;;;4972018;28;20062;-64
2022/06/28 14:40:39;;;;;;;51.47;7.15;;;;;;;;;;4972273;28;20074;-63
2022/06/28 14:43:05;;;;;;;270.33;21.25;;;;;;;;;;4972319;28;20127;-64
2022/06/28 14:45:32;;;;;;;81.25;8.32;;;;;;;;;;4972398;28;20097;-67
2022/06/28 14:48:16;;;;;;;74.95;8.82;;;;;;;;;;4970646;28;20066;-64
2022/06/28 14:50:43;;;;;;;85.15;9.73;;;;;;;;;;4972533;28;20042;-64
2022/06/28 14:53:12;;;;;;;67.63;7.78;;;;;;;;;;4972748;28;20419;-64
2022/06/28 14:55:45;;;;;;;47.92;6.25;;;;;;;;;;4972723;28;20042;-64
2022/06/28 14:58:12;;;;;;;43.97;6.63;;;;;;;;;;4972240;28;20074;-64
2022/06/28 15:00:38;;;;;;;80.07;10.23;;;;;;;;;;4971650;28;20051;-65